DW7516 Weather Reports


Display with metric or nautical units.
time (UTC)temp
F
wind
direction
speed
MPH
gust
MPH
rain 1hr
in
rain 24hr
in
rain mn
in
humidity
%
barometer
mb
20190122014108 51 45 1.0 1.0 0.00 0.00 0.00 49 1010.5
20190122013608 51 45 0.0 0.0 0.00 0.00 0.00 48 1010.6
20190122013108 51 45 1.0 6.0 0.00 0.00 0.00 47 1010.7
20190122011609 52 45 4.0 6.0 0.00 0.00 0.00 43 1010.9
20190122011108 51 45 5.0 8.0 0.00 0.00 0.00 43 1011.1
20190122010609 51 38 5.0 7.0 0.00 0.00 0.00 45 1011.0
20190122010108 51 30 5.0 6.0 0.00 0.00 0.00 46 1010.9
20190122004609 50 22 3.0 5.0 0.00 0.00 0.00 57 1011.4
20190122004108 50 0 3.0 3.0 0.00 0.00 0.00 59 1011.5
20190122003607 50 0 3.0 5.0 0.00 0.00 0.00 60 1011.2
20190122003118 50 0 2.0 3.0 0.00 0.00 0.00 61 1011.7
20190122001608 50 0 2.0 2.0 0.00 0.00 0.00 61 1011.7
20190122001108 50 0 0.0 0.0 0.00 0.00 0.00 62 1011.7
20190122000608 50 0 1.0 1.0 0.00 0.00 0.00 62 1011.3
20190122000108 49 0 1.0 3.0 0.00 0.00 0.00 60 1011.4
20190121234608 49 0 2.0 2.0 0.00 0.00 0.00 61 1011.5
20190121234108 49 0 2.0 2.0 0.00 0.00 0.00 63 1011.6
20190121233608 49 0 2.0 2.0 0.00 0.00 0.00 63 1011.7
20190121233108 49 0 2.0 3.0 0.00 0.00 0.00 62 1011.7
20190121231608 49 0 0.0 0.0 0.00 0.00 0.00 67 1011.6
20190121231108 49 0 1.0 2.0 0.00 0.00 0.00 67 1011.6
20190121230610 49 0 2.0 2.0 0.00 0.00 0.00 66 1011.5
20190121230108 49 0 2.0 2.0 0.00 0.00 0.00 67 1011.7
20190121224608 49 0 0.0 2.0 0.00 0.00 0.00 69 1011.9
20190121224109 49 0 2.0 3.0 0.00 0.00 0.00 68 1012.1
20190121223609 49 0 2.0 2.0 0.00 0.00 0.00 69 1012.1
20190121223108 49 354 2.0 3.0 0.00 0.00 0.00 70 1011.9
20190121221609 49 315 1.0 2.0 0.00 0.00 0.00 71 1012.0
20190121221111 49 315 1.0 2.0 0.00 0.00 0.00 71 1011.9
20190121220608 49 315 0.0 1.0 0.00 0.00 0.00 72 1012.0
20190121220107 49 315 2.0 2.0 0.00 0.00 0.00 73 1012.1
20190121214608 49 22 1.0 3.0 0.00 0.00 0.00 73 1011.7
20190121214107 49 22 1.0 3.0 0.00 0.00 0.00 74 1011.7
20190121213608 49 22 2.0 3.0 0.00 0.00 0.00 74 1011.9
20190121213108 49 22 0.0 2.0 0.00 0.00 0.00 75 1012.1
20190121211608 49 22 2.0 3.0 0.00 0.00 0.00 76 1012.2
20190121211107 49 22 2.0 3.0 0.00 0.00 0.00 76 1012.1
20190121210608 49 22 1.0 2.0 0.00 0.00 0.00 77 1012.3
20190121210108 49 22 1.0 2.0 0.00 0.00 0.00 78 1012.4
20190121204608 48 22 0.0 0.0 0.00 0.00 0.00 80 1012.5
20190121204108 48 22 0.0 0.0 0.00 0.00 0.00 80 1012.6
20190121203608 48 22 0.0 0.0 0.00 0.00 0.00 80 1012.7
20190121203109 48 22 1.0 1.0 0.00 0.00 0.00 80 1012.6
20190121201609 48 22 0.0 0.0 0.00 0.00 0.00 80 1012.1
20190121201107 48 22 0.0 2.0 0.00 0.00 0.00 81 1012.2
20190121200608 48 22 1.0 2.0 0.00 0.00 0.00 81 1012.3
20190121200108 48 22 1.0 2.0 0.00 0.00 0.00 81 1012.3
20190121194608 47 22 2.0 2.0 0.00 0.00 0.00 83 1012.6
20190121194109 47 22 1.0 1.0 0.00 0.00 0.00 81 1012.6
20190121193612 48 22 0.0 1.0 0.00 0.00 0.00 81 1012.5
20190121193109 48 22 0.0 1.0 0.00 0.00 0.00 82 1012.5
20190121191608 47 22 0.0 0.0 0.00 0.00 0.00 81 1012.1
20190121191108 47 22 0.0 0.0 0.00 0.00 0.00 81 1012.0
20190121190608 47 22 0.0 0.0 0.00 0.00 0.00 81 1012.0
20190121190108 47 22 1.0 1.0 0.00 0.00 0.00 82 1012.5
20190121184608 47 22 2.0 2.0 0.00 0.00 0.00 82 1012.4
20190121184108 48 22 2.0 2.0 0.00 0.00 0.00 82 1012.3
20190121183610 48 22 2.0 3.0 0.00 0.00 0.00 82 1012.3
20190121183109 48 22 2.0 3.0 0.00 0.00 0.00 82 1012.2
20190121181608 49 22 3.0 5.0 0.00 0.00 0.00 82 1012.6
20190121181108 49 22 1.0 2.0 0.00 0.00 0.00 83 1012.2
20190121180608 48 22 1.0 2.0 0.00 0.00 0.00 82 1012.3
20190121180107 48 22 2.0 5.0 0.00 0.00 0.00 83 1012.2
20190121174611 47 292 3.0 5.0 0.00 0.00 0.00 84 1012.4
20190121174107 47 292 1.0 2.0 0.00 0.00 0.00 85 1012.9
20190121173607 47 292 2.0 3.0 0.00 0.00 0.00 84 1012.8
20190121173108 47 292 2.0 3.0 0.00 0.00 0.00 84 1012.8
20190121171608 47 292 3.0 5.0 0.00 0.00 0.00 81 1012.4
20190121171108 47 292 2.0 2.0 0.00 0.00 0.00 81 1012.6
20190121170607 47 292 1.0 2.0 0.00 0.00 0.00 81 1012.7
20190121170108 47 292 2.0 2.0 0.00 0.00 0.00 81 1012.7
20190121164608 47 292 0.0 1.0 0.00 0.00 0.00 83 1012.7
20190121164108 47 292 0.0 1.0 0.00 0.00 0.00 82 1012.8
20190121163608 47 292 1.0 1.0 0.00 0.00 0.00 82 1012.7
20190121163108 47 292 0.0 0.0 0.00 0.00 0.00 80 1012.9
20190121161608 47 292 0.0 0.0 0.00 0.00 0.00 80 1012.5
20190121161107 47 292 0.0 0.0 0.00 0.00 0.00 80 1012.2
20190121160608 47 292 0.0 0.0 0.00 0.00 0.00 79 1012.1
20190121160109 48 292 0.0 0.0 0.00 0.00 0.00 79 1012.1
20190121154610 48 292 0.0 0.0 0.00 0.00 0.00 78 1012.3
20190121154108 48 292 0.0 0.0 0.00 0.00 0.00 78 1012.5
20190121153610 48 292 0.0 0.0 0.00 0.00 0.00 78 1012.4
20190121153107 48 292 1.0 1.0 0.00 0.00 0.00 78 1012.4
20190121151607 48 292 1.0 1.0 0.00 0.00 0.00 78 1012.3
20190121151107 48 292 1.0 2.0 0.00 0.00 0.00 77 1012.4
20190121150608 49 292 1.0 2.0 0.00 0.00 0.00 76 1012.4
20190121150107 49 292 2.0 2.0 0.00 0.00 0.00 75 1012.0
20190121144614 50 292 0.0 0.0 0.00 0.00 0.00 74 1012.1
20190121144107 50 292 0.0 0.0 0.00 0.00 0.00 74 1012.3
20190121143608 51 292 0.0 0.0 0.00 0.00 0.00 74 1012.3
20190121143108 51 292 0.0 1.0 0.00 0.00 0.00 74 1012.3
20190121141607 52 292 0.0 1.0 0.00 0.00 0.00 75 1012.2
20190121141108 52 292 2.0 3.0 0.00 0.00 0.00 75 1012.1
20190121140608 52 292 3.0 5.0 0.00 0.00 0.00 73 1012.1
20190121140108 52 292 2.0 5.0 0.00 0.00 0.00 73 1012.3
20190121134607 55 338 2.0 2.0 0.00 0.00 0.00 70 1011.8
20190121134108 55 338 1.0 2.0 0.00 0.00 0.00 70 1012.0
20190121133608 55 338 2.0 5.0 0.00 0.00 0.00 71 1012.3
20190121133107 55 270 2.0 3.0 0.00 0.00 0.00 71 1012.3
20190121131607 55 202 1.0 2.0 0.00 0.00 0.00 75 1011.9
20190121131107 54 202 2.0 5.0 0.00 0.00 0.00 75 1011.8
20190121130607 54 202 5.0 6.0 0.00 0.00 0.00 75 1011.8
20190121130107 54 202 4.0 5.0 0.00 0.00 0.00 75 1011.8
20190121124608 55 292 1.0 3.0 0.00 0.00 0.00 70 1012.1
20190121124107 56 292 1.0 2.0 0.00 0.00 0.00 69 1012.2
20190121123608 56 292 1.0 5.0 0.00 0.00 0.00 69 1011.8
20190121123107 57 292 3.0 7.0 0.00 0.00 0.00 70 1012.0
20190121121607 57 270 4.0 7.0 0.00 0.00 0.00 68 1011.9
20190121121108 57 217 3.0 6.0 0.00 0.00 0.00 67 1011.9
20190121120608 57 225 3.0 6.0 0.00 0.00 0.00 68 1011.9
20190121120108 57 225 2.0 5.0 0.00 0.00 0.00 65 1011.8
20190121114608 56 180 2.0 2.0 0.00 0.00 0.00 67 1012.2
20190121114109 55 180 1.0 2.0 0.00 0.00 0.00 67 1012.0
20190121113610 54 158 2.0 3.0 0.00 0.00 0.00 67 1012.3
20190121113107 55 158 3.0 6.0 0.00 0.00 0.00 67 1012.0
20190121111607 57 180 4.0 7.0 0.00 0.00 0.00 62 1012.5
20190121111107 58 140 2.0 7.0 0.00 0.00 0.00 59 1012.5
20190121110610 58 292 4.0 5.0 0.00 0.00 0.00 59 1012.5
20190121110110 58 338 1.0 5.0 0.00 0.00 0.00 58 1012.6
20190121104607 58 315 3.0 5.0 0.00 0.00 0.00 60 1013.0
20190121104109 57 315 3.0 6.0 0.00 0.00 0.00 61 1013.0
20190121103607 57 305 3.0 6.0 0.00 0.00 0.00 60 1013.1
20190121103108 57 292 3.0 7.0 0.00 0.00 0.00 59 1012.6
20190121101607 57 292 4.0 7.0 0.00 0.00 0.00 59 1012.8
20190121101106 58 338 3.0 6.0 0.00 0.00 0.00 57 1012.8
20190121100611 58 333 3.0 6.0 0.00 0.00 0.00 54 1012.9
20190121100107 59 308 2.0 6.0 0.00 0.00 0.00 50 1013.2
20190121094607 58 292 1.0 2.0 0.00 0.00 0.00 48 1012.7
20190121094107 58 292 1.0 1.0 0.00 0.00 0.00 47 1012.8
20190121093607 58 292 2.0 5.0 0.00 0.00 0.00 47 1013.1
20190121093107 58 292 2.0 6.0 0.00 0.00 0.00 46 1013.1
20190121091607 57 315 3.0 5.0 0.00 0.00 0.00 46 1013.0
20190121090611 58 208 2.0 5.0 0.00 0.00 0.00 45 1013.0
20190121090107 59 160 2.0 6.0 0.00 0.00 0.00 45 1013.0
20190121084606 60 248 1.0 2.0 0.00 0.00 0.00 44 1013.2
20190121084107 59 202 3.0 5.0 0.00 0.00 0.00 42 1013.3
20190121083607 59 202 2.0 3.0 0.00 0.00 0.00 42 1013.5
20190121083108 58 202 2.0 3.0 0.00 0.00 0.00 44 1013.5
20190121081608 57 202 2.0 2.0 0.00 0.00 0.00 46 1013.2
20190121081106 56 202 2.0 5.0 0.00 0.00 0.00 45 1013.3
20190121080607 57 202 4.0 5.0 0.00 0.00 0.00 44 1013.4
20190121080108 57 135 3.0 3.0 0.00 0.00 0.00 43 1013.6
20190121074607 58 68 1.0 2.0 0.00 0.00 0.00 41 1013.4
20190121074107 58 68 0.0 2.0 0.00 0.00 0.00 41 1013.6
20190121073607 57 68 2.0 2.0 0.00 0.00 0.00 41 1013.7
20190121073108 57 68 2.0 2.0 0.00 0.00 0.00 41 1013.8
20190121071606 57 68 1.0 2.0 0.00 0.00 0.00 42 1013.5
20190121071107 56 68 0.0 1.0 0.00 0.00 0.00 42 1013.4
20190121070607 56 68 1.0 2.0 0.00 0.00 0.00 41 1013.5
20190121070107 56 68 1.0 2.0 0.00 0.00 0.00 42 1013.6
20190121064607 56 68 0.0 1.0 0.00 0.00 0.00 43 1013.4
20190121064107 56 68 0.0 1.0 0.00 0.00 0.00 43 1013.4
20190121063606 56 68 0.0 2.0 0.00 0.00 0.00 43 1013.4
20190121063109 56 68 0.0 1.0 0.00 0.00 0.00 44 1013.7
20190121061608 54 68 0.0 1.0 0.00 0.00 0.00 45 1013.4
20190121061107 55 68 0.0 0.0 0.00 0.00 0.00 44 1013.5
20190121060607 55 68 1.0 1.0 0.00 0.00 0.00 44 1013.6
20190121060107 55 68 0.0 2.0 0.00 0.00 0.00 45 1013.6
20190121054606 52 68 1.0 2.0 0.00 0.00 0.00 44 1013.1
20190121054107 51 68 1.0 3.0 0.00 0.00 0.00 44 1013.4
20190121053606 51 68 2.0 3.0 0.00 0.00 0.00 44 1013.1
20190121053106 50 68 2.0 2.0 0.00 0.00 0.00 44 1013.1
20190121051607 49 68 2.0 3.0 0.00 0.00 0.00 46 1013.3
20190121051107 49 68 2.0 2.0 0.00 0.00 0.00 46 1013.0
20190121050607 49 68 2.0 2.0 0.00 0.00 0.00 46 1013.1
20190121050106 49 68 2.0 5.0 0.00 0.00 0.00 46 1013.1
20190121044607 49 68 2.0 3.0 0.00 0.00 0.00 46 1012.9
20190121044106 49 68 3.0 3.0 0.00 0.00 0.00 45 1013.1
20190121043607 49 68 2.0 2.0 0.00 0.00 0.00 45 1013.1
20190121043107 49 68 1.0 2.0 0.00 0.00 0.00 46 1012.9
20190121041606 49 68 2.0 2.0 0.00 0.00 0.00 46 1012.8
20190121041106 49 68 2.0 2.0 0.00 0.00 0.00 46 1012.9
20190121040607 49 68 2.0 3.0 0.00 0.00 0.00 46 1012.9
20190121040106 49 68 2.0 3.0 0.00 0.00 0.00 45 1013.0
20190121034608 49 68 2.0 2.0 0.00 0.00 0.00 45 1012.5
20190121034106 49 68 1.0 2.0 0.00 0.00 0.00 45 1012.7
20190121033606 49 68 0.0 2.0 0.00 0.00 0.00 46 1012.7
20190121033106 49 68 3.0 3.0 0.00 0.00 0.00 46 1012.8
20190121031606 49 68 2.0 2.0 0.00 0.00 0.00 45 1012.3
20190121031107 49 68 1.0 2.0 0.00 0.00 0.00 44 1012.5
20190121030607 49 68 2.0 2.0 0.00 0.00 0.00 44 1012.5
20190121030109 50 68 2.0 2.0 0.00 0.00 0.00 44 1012.5
20190121024606 49 68 2.0 3.0 0.00 0.00 0.00 44 1012.1
20190121024106 49 68 2.0 2.0 0.00 0.00 0.00 44 1012.0
20190121023607 49 68 2.0 3.0 0.00 0.00 0.00 45 1011.9
20190121023109 49 68 2.0 5.0 0.00 0.00 0.00 45 1012.2
20190121021606 50 68 1.0 2.0 0.00 0.00 0.00 44 1012.0
20190121021106 50 68 1.0 2.0 0.00 0.00 0.00 45 1012.0
20190121020607 50 68 0.0 3.0 0.00 0.00 0.00 45 1011.9
20190121020107 50 68 2.0 5.0 0.00 0.00 0.00 45 1012.0
20190121014606 50 68 2.0 3.0 0.00 0.00 0.00 46 1012.1